»·PEaware :: JBU106 KLAS-KSNA

JBU106 :: KLAS-KSNA

FLIGHT INFORMATION

Flight Status: Arrived
Operator:
JetBlue Airways
More flights by this operator :: More flights under this callsign
Pilot: Rohan Ogale (9904)
Aircraft: BOEING 737-300
(B733)
More flights by this aircraft type
Origin: KLAS McCarran Intl
United States
Destination: KSNA John Wayne-Orange Co
United States
More flights between these airports :: More routes between these airports
Route: +BOACH7 WHIGG FEYLA DSNEE1
File this flight plan on PilotEdge
Remarks: PBN / A1B3B4B5D3D4 DOF / 170812 REG / N155AW OPR / JBU RMK / TCAS SIMBRIEF
Altitude:
(Current/Filed)
28,000ft
Speed:
(Current/Filed)
438kts
Departed: 11-Aug-17 09:36 PM
Arrived: 11-Aug-17 10:18 PM
Distance/Time
Traveled:
196nm/0:42
Distance/Time
To Go:
Arrived

Flight Plot

Page will automatically refresh every two minutes.

Flight plan parsing failed; only flown route is shown


Map Options




Map Legend


Flown Route
Filed Route
Departure Airport
Arrival Airport
Navaid (VOR, NDB)
Fix

Horizontal Profiles

Position Reports

Time Latitude Longitude Heading Altitude Ground
Speed
11-Aug-17 20:58 36.080219 -115.136021 47 2148ft 0kts
11-Aug-17 20:59 36.080092 -115.134936 319 2148ft 0kts
11-Aug-17 21:00 36.080092 -115.134936 319 2148ft 0kts
11-Aug-17 21:01 36.080092 -115.134936 319 2148ft 0kts
11-Aug-17 21:03 36.080092 -115.134936 319 2148ft 0kts
11-Aug-17 21:04 33.667139 -117.871817 220 64ft 0kts
11-Aug-17 21:05 33.667139 -117.871818 220 64ft 0kts
11-Aug-17 21:06 33.667139 -117.871818 220 64ft 0kts
11-Aug-17 21:07 33.667139 -117.871818 220 64ft 0kts
11-Aug-17 21:08 33.667139 -117.871818 220 64ft 0kts
11-Aug-17 21:09 36.079996 -115.135657 22 2148ft 0kts
11-Aug-17 21:10 36.079996 -115.135657 22 2148ft 0kts
11-Aug-17 21:11 36.079996 -115.135657 22 2148ft 0kts
11-Aug-17 21:12 36.079996 -115.135657 22 2148ft 0kts
11-Aug-17 21:13 36.079996 -115.135657 22 2148ft 0kts
11-Aug-17 21:14 36.079996 -115.135657 22 2148ft 0kts
11-Aug-17 21:15 36.079996 -115.135657 22 2148ft 0kts
11-Aug-17 21:16 36.079996 -115.135657 22 2148ft 0kts
11-Aug-17 21:17 36.079996 -115.135657 22 2148ft 0kts
11-Aug-17 21:18 36.079996 -115.135657 22 2148ft 0kts
11-Aug-17 21:19 36.079996 -115.135657 22 2148ft 0kts
11-Aug-17 21:20 36.079996 -115.135657 22 2148ft 0kts
11-Aug-17 21:21 36.079996 -115.135657 22 2148ft 0kts
11-Aug-17 21:22 36.079996 -115.135657 22 2148ft 0kts
11-Aug-17 21:22 36.079996 -115.135657 22 2148ft 0kts
11-Aug-17 21:23 36.079996 -115.135657 22 2148ft 0kts
11-Aug-17 21:24 36.079996 -115.135657 22 2148ft 0kts
11-Aug-17 21:25 36.079996 -115.135657 22 2148ft 0kts
11-Aug-17 21:26 36.079996 -115.135657 22 2148ft 0kts
11-Aug-17 21:27 36.079996 -115.135657 22 2148ft 0kts
11-Aug-17 21:28 36.079989 -115.135660 22 2148ft 0kts
11-Aug-17 21:29 36.079484 -115.135918 21 2148ft 0kts
11-Aug-17 21:30 36.079397 -115.135959 20 2148ft 0kts
11-Aug-17 21:31 36.079397 -115.135959 20 2148ft 0kts
11-Aug-17 21:32 36.079397 -115.135959 20 2148ft 0kts
11-Aug-17 21:33 36.079398 -115.135958 20 2148ft 0kts
11-Aug-17 21:34 36.078933 -115.133687 117 2148ft 0kts
11-Aug-17 21:35 36.078902 -115.131943 91 2148ft 18kts
11-Aug-17 21:36 36.078339 -115.125636 106 2148ft 9kts
11-Aug-17 21:37 36.077899 -115.122109 127 2148ft 11kts
11-Aug-17 21:38 36.076441 -115.123962 269 2148ft 16kts
11-Aug-17 21:39 36.076556 -115.162478 269 2747ft 182kts
11-Aug-17 21:40 36.073007 -115.230454 259 4845ft 218kts
11-Aug-17 21:41 36.024957 -115.277275 201 7002ft 257kts
11-Aug-17 21:42 35.955229 -115.304131 185 9321ft 289kts
11-Aug-17 21:43 35.876322 -115.312946 186 10887ft 341kts
11-Aug-17 21:44 35.785629 -115.306989 175 13674ft 351kts
11-Aug-17 21:45 35.688220 -115.301468 197 16322ft 359kts
11-Aug-17 21:46 35.614684 -115.380059 228 18768ft 365kts
11-Aug-17 21:47 35.551441 -115.465356 228 20918ft 373kts
11-Aug-17 21:48 35.481383 -115.559483 228 23036ft 381kts
11-Aug-17 21:49 35.412669 -115.652046 228 24878ft 389kts
11-Aug-17 21:50 35.344154 -115.744460 228 26552ft 396kts
11-Aug-17 21:51 35.269893 -115.844115 228 27970ft 405kts
11-Aug-17 21:52 35.194022 -115.943104 226 27875ft 417kts
11-Aug-17 21:53 35.112511 -116.045774 227 27917ft 435kts
11-Aug-17 21:54 35.033514 -116.145197 226 27918ft 435kts
11-Aug-17 21:55 34.951446 -116.248258 225 27923ft 440kts
11-Aug-17 21:56 34.879072 -116.338866 224 27917ft 414kts
11-Aug-17 21:57 34.802410 -116.436121 225 27869ft 406kts
11-Aug-17 21:58 34.724356 -116.535456 224 25661ft 402kts
11-Aug-17 21:59 34.645412 -116.621869 217 25310ft 397kts
11-Aug-17 22:00 34.563796 -116.701751 216 23252ft 393kts
11-Aug-17 22:01 34.483119 -116.784028 221 20894ft 383kts
11-Aug-17 22:02 34.409913 -116.869309 222 18583ft 375kts
11-Aug-17 22:03 34.336412 -116.954512 222 16232ft 369kts
11-Aug-17 22:04 34.266635 -117.033638 214 14324ft 350kts
11-Aug-17 22:05 34.193144 -117.087117 210 13087ft 331kts
11-Aug-17 22:06 34.113421 -117.133578 203 11608ft 336kts
11-Aug-17 22:07 34.040720 -117.191086 251 10004ft 319kts
11-Aug-17 22:08 34.013864 -117.285717 241 9676ft 305kts
11-Aug-17 22:09 33.977253 -117.367685 241 8267ft 288kts
11-Aug-17 22:10 33.957028 -117.445274 281 8026ft 250kts
11-Aug-17 22:11 33.971775 -117.523688 282 6713ft 240kts
11-Aug-17 22:12 33.981282 -117.598769 247 5322ft 224kts
11-Aug-17 22:13 33.939528 -117.648977 222 4030ft 205kts
11-Aug-17 22:14 33.904356 -117.693042 231 4008ft 191kts
11-Aug-17 22:15 33.873280 -117.739694 224 3972ft 191kts
11-Aug-17 22:16 33.829537 -117.772269 206 3141ft 181kts
11-Aug-17 22:17 33.786405 -117.798562 208 2432ft 173kts
11-Aug-17 22:18 33.751325 -117.821021 208 1683ft 140kts
11-Aug-17 22:19 33.717501 -117.842346 208 892ft 137kts
11-Aug-17 22:20 33.685140 -117.862875 208 181ft 135kts
11-Aug-17 22:21 33.667897 -117.873401 146 63ft 9kts
11-Aug-17 22:22 33.668096 -117.871942 38 63ft 3kts
11-Aug-17 22:23 33.670577 -117.869437 41 63ft 21kts
11-Aug-17 22:24 33.675256 -117.865742 27 63ft 23kts
11-Aug-17 22:25 33.677162 -117.864517 37 63ft 0kts
11-Aug-17 22:26 33.677210 -117.863721 123 63ft 0kts
11-Aug-17 22:27 33.677191 -117.863675 117 63ft 0kts

Navigation Log

Ident Type
Flight plan parsing failed, navigation log unavailable